sensor_id;sensor_type;location;lat;lon;timestamp;temperature;humidity
6496;DHT22;3281;47.658;9.166;2023-01-15T00:01:17;9.40;1.00
6496;DHT22;3281;47.658;9.166;2023-01-15T00:03:44;9.30;1.00
6496;DHT22;3281;47.658;9.166;2023-01-15T00:06:11;9.20;1.00
6496;DHT22;3281;47.658;9.166;2023-01-15T00:08:38;8.90;1.00
6496;DHT22;3281;47.658;9.166;2023-01-15T00:18:38;9.30;1.00
6496;DHT22;3281;47.658;9.166;2023-01-15T00:21:07;9.00;1.00
6496;DHT22;3281;47.658;9.166;2023-01-15T00:23:35;9.00;1.00
6496;DHT22;3281;47.658;9.166;2023-01-15T00:26:21;9.00;1.00
6496;DHT22;3281;47.658;9.166;2023-01-15T00:29:05;8.80;1.00
6496;DHT22;3281;47.658;9.166;2023-01-15T00:31:34;8.80;1.00
6496;DHT22;3281;47.658;9.166;2023-01-15T00:34:01;8.80;1.00
6496;DHT22;3281;47.658;9.166;2023-01-15T00:36:28;8.80;1.00
6496;DHT22;3281;47.658;9.166;2023-01-15T00:38:55;8.80;1.00
6496;DHT22;3281;47.658;9.166;2023-01-15T00:41:22;8.70;1.00
6496;DHT22;3281;47.658;9.166;2023-01-15T00:43:49;8.70;1.00
6496;DHT22;3281;47.658;9.166;2023-01-15T00:46:17;8.70;1.00
6496;DHT22;3281;47.658;9.166;2023-01-15T00:48:45;8.70;1.00
6496;DHT22;3281;47.658;9.166;2023-01-15T00:51:12;8.80;1.00
6496;DHT22;3281;47.658;9.166;2023-01-15T00:53:38;9.00;1.00
6496;DHT22;3281;47.658;9.166;2023-01-15T00:56:05;9.10;1.00
6496;DHT22;3281;47.658;9.166;2023-01-15T00:58:32;9.30;1.00
6496;DHT22;3281;47.658;9.166;2023-01-15T01:00:59;9.50;1.00
6496;DHT22;3281;47.658;9.166;2023-01-15T01:03:26;9.60;1.00
6496;DHT22;3281;47.658;9.166;2023-01-15T01:05:59;9.70;1.00
6496;DHT22;3281;47.658;9.166;2023-01-15T01:08:26;9.80;1.00
6496;DHT22;3281;47.658;9.166;2023-01-15T01:11:00;10.00;1.00
6496;DHT22;3281;47.658;9.166;2023-01-15T01:13:27;10.10;1.00
6496;DHT22;3281;47.658;9.166;2023-01-15T01:15:54;10.20;1.00
6496;DHT22;3281;47.658;9.166;2023-01-15T01:18:21;10.20;1.00
6496;DHT22;3281;47.658;9.166;2023-01-15T01:20:47;10.30;1.00
6496;DHT22;3281;47.658;9.166;2023-01-15T01:23:15;10.30;1.00
6496;DHT22;3281;47.658;9.166;2023-01-15T01:25:42;10.20;1.00
6496;DHT22;3281;47.658;9.166;2023-01-15T01:28:09;10.30;1.00
6496;DHT22;3281;47.658;9.166;2023-01-15T01:30:36;10.40;1.00
6496;DHT22;3281;47.658;9.166;2023-01-15T01:33:03;10.40;1.00
6496;DHT22;3281;47.658;9.166;2023-01-15T01:35:31;10.40;1.00
6496;DHT22;3281;47.658;9.166;2023-01-15T01:37:58;10.30;1.00
6496;DHT22;3281;47.658;9.166;2023-01-15T01:40:26;10.30;1.00
6496;DHT22;3281;47.658;9.166;2023-01-15T01:42:53;10.30;1.00
6496;DHT22;3281;47.658;9.166;2023-01-15T01:45:23;10.30;1.00
6496;DHT22;3281;47.658;9.166;2023-01-15T01:47:53;10.20;1.00
6496;DHT22;3281;47.658;9.166;2023-01-15T01:50:20;10.20;1.00
6496;DHT22;3281;47.658;9.166;2023-01-15T01:52:51;10.10;1.00
6496;DHT22;3281;47.658;9.166;2023-01-15T01:55:21;10.00;1.00
6496;DHT22;3281;47.658;9.166;2023-01-15T01:57:51;10.00;1.00
6496;DHT22;3281;47.658;9.166;2023-01-15T02:00:19;9.90;1.00
6496;DHT22;3281;47.658;9.166;2023-01-15T02:02:48;9.90;1.00
6496;DHT22;3281;47.658;9.166;2023-01-15T02:05:22;9.80;1.00
6496;DHT22;3281;47.658;9.166;2023-01-15T02:07:52;9.70;1.00
6496;DHT22;3281;47.658;9.166;2023-01-15T02:10:19;9.70;1.00
6496;DHT22;3281;47.658;9.166;2023-01-15T02:12:50;9.60;1.00
6496;DHT22;3281;47.658;9.166;2023-01-15T02:15:25;9.60;1.00
6496;DHT22;3281;47.658;9.166;2023-01-15T02:17:59;9.50;1.00
6496;DHT22;3281;47.658;9.166;2023-01-15T02:20:31;9.50;1.00
6496;DHT22;3281;47.658;9.166;2023-01-15T02:23:32;9.40;1.00
6496;DHT22;3281;47.658;9.166;2023-01-15T02:26:26;9.40;1.00
6496;DHT22;3281;47.658;9.166;2023-01-15T02:28:57;9.40;1.00
6496;DHT22;3281;47.658;9.166;2023-01-15T02:31:28;9.50;1.00
6496;DHT22;3281;47.658;9.166;2023-01-15T02:34:00;9.50;1.00
6496;DHT22;3281;47.658;9.166;2023-01-15T02:36:31;9.50;1.00
6496;DHT22;3281;47.658;9.166;2023-01-15T02:39:02;9.50;1.00
6496;DHT22;3281;47.658;9.166;2023-01-15T02:41:33;9.60;1.00
6496;DHT22;3281;47.658;9.166;2023-01-15T02:44:04;9.60;1.00
6496;DHT22;3281;47.658;9.166;2023-01-15T02:46:35;9.60;1.00
6496;DHT22;3281;47.658;9.166;2023-01-15T02:49:05;9.50;1.00
6496;DHT22;3281;47.658;9.166;2023-01-15T02:51:37;9.60;1.00
6496;DHT22;3281;47.658;9.166;2023-01-15T02:54:10;9.70;1.00
6496;DHT22;3281;47.658;9.166;2023-01-15T02:56:39;9.60;1.00
6496;DHT22;3281;47.658;9.166;2023-01-15T02:59:13;9.60;1.00
6496;DHT22;3281;47.658;9.166;2023-01-15T03:01:43;9.60;1.00
6496;DHT22;3281;47.658;9.166;2023-01-15T03:04:14;9.70;1.00
6496;DHT22;3281;47.658;9.166;2023-01-15T03:06:45;9.60;1.00
6496;DHT22;3281;47.658;9.166;2023-01-15T03:09:14;9.60;1.00
6496;DHT22;3281;47.658;9.166;2023-01-15T03:11:44;9.60;1.00
6496;DHT22;3281;47.658;9.166;2023-01-15T03:14:18;9.60;1.00
6496;DHT22;3281;47.658;9.166;2023-01-15T03:16:50;9.60;1.00
6496;DHT22;3281;47.658;9.166;2023-01-15T03:19:23;9.40;1.00
6496;DHT22;3281;47.658;9.166;2023-01-15T03:21:54;9.40;1.00
6496;DHT22;3281;47.658;9.166;2023-01-15T03:24:28;9.50;1.00
6496;DHT22;3281;47.658;9.166;2023-01-15T03:26:56;9.50;1.00
6496;DHT22;3281;47.658;9.166;2023-01-15T03:29:28;9.40;1.00
6496;DHT22;3281;47.658;9.166;2023-01-15T03:31:56;9.40;1.00
6496;DHT22;3281;47.658;9.166;2023-01-15T03:34:24;9.40;1.00
6496;DHT22;3281;47.658;9.166;2023-01-15T03:36:52;9.30;1.00
6496;DHT22;3281;47.658;9.166;2023-01-15T03:39:19;9.40;1.00
6496;DHT22;3281;47.658;9.166;2023-01-15T03:41:51;9.40;1.00
6496;DHT22;3281;47.658;9.166;2023-01-15T03:44:29;9.50;1.00
6496;DHT22;3281;47.658;9.166;2023-01-15T03:47:04;9.50;1.00
6496;DHT22;3281;47.658;9.166;2023-01-15T03:49:41;9.40;1.00
6496;DHT22;3281;47.658;9.166;2023-01-15T03:52:15;9.40;1.00
6496;DHT22;3281;47.658;9.166;2023-01-15T03:54:49;9.40;1.00
6496;DHT22;3281;47.658;9.166;2023-01-15T03:57:24;9.40;1.00
6496;DHT22;3281;47.658;9.166;2023-01-15T03:59:55;9.40;1.00
6496;DHT22;3281;47.658;9.166;2023-01-15T04:02:25;9.30;1.00
6496;DHT22;3281;47.658;9.166;2023-01-15T04:04:53;9.30;1.00
6496;DHT22;3281;47.658;9.166;2023-01-15T04:07:22;9.20;1.00
6496;DHT22;3281;47.658;9.166;2023-01-15T04:09:49;9.20;1.00
6496;DHT22;3281;47.658;9.166;2023-01-15T04:12:16;9.20;1.00
6496;DHT22;3281;47.658;9.166;2023-01-15T04:14:43;9.30;1.00
6496;DHT22;3281;47.658;9.166;2023-01-15T04:17:11;9.30;1.00
6496;DHT22;3281;47.658;9.166;2023-01-15T04:19:38;9.30;1.00
6496;DHT22;3281;47.658;9.166;2023-01-15T04:22:04;9.30;1.00
6496;DHT22;3281;47.658;9.166;2023-01-15T04:24:31;9.20;1.00
6496;DHT22;3281;47.658;9.166;2023-01-15T04:26:58;9.30;1.00
6496;DHT22;3281;47.658;9.166;2023-01-15T04:29:25;9.20;1.00
6496;DHT22;3281;47.658;9.166;2023-01-15T04:31:51;9.30;1.00
6496;DHT22;3281;47.658;9.166;2023-01-15T04:34:23;9.20;1.00
6496;DHT22;3281;47.658;9.166;2023-01-15T04:36:50;9.10;1.00
6496;DHT22;3281;47.658;9.166;2023-01-15T04:39:17;9.30;1.00
6496;DHT22;3281;47.658;9.166;2023-01-15T04:41:43;9.30;1.00
6496;DHT22;3281;47.658;9.166;2023-01-15T04:44:28;9.30;1.00
6496;DHT22;3281;47.658;9.166;2023-01-15T04:46:55;9.30;1.00
6496;DHT22;3281;47.658;9.166;2023-01-15T04:49:26;9.40;1.00
6496;DHT22;3281;47.658;9.166;2023-01-15T04:51:52;9.40;1.00
6496;DHT22;3281;47.658;9.166;2023-01-15T04:54:19;9.30;1.00
6496;DHT22;3281;47.658;9.166;2023-01-15T04:56:48;9.40;1.00
6496;DHT22;3281;47.658;9.166;2023-01-15T04:59:17;9.30;1.00
6496;DHT22;3281;47.658;9.166;2023-01-15T05:01:44;9.40;1.00
6496;DHT22;3281;47.658;9.166;2023-01-15T05:04:11;9.40;1.00
6496;DHT22;3281;47.658;9.166;2023-01-15T05:06:39;9.40;1.00
6496;DHT22;3281;47.658;9.166;2023-01-15T05:09:06;9.40;1.00
6496;DHT22;3281;47.658;9.166;2023-01-15T05:11:34;9.30;1.00
6496;DHT22;3281;47.658;9.166;2023-01-15T05:14:01;9.40;1.00
6496;DHT22;3281;47.658;9.166;2023-01-15T05:16:28;9.30;1.00
6496;DHT22;3281;47.658;9.166;2023-01-15T05:18:57;9.30;1.00
6496;DHT22;3281;47.658;9.166;2023-01-15T05:21:26;9.20;1.00
6496;DHT22;3281;47.658;9.166;2023-01-15T05:23:55;9.20;1.00
6496;DHT22;3281;47.658;9.166;2023-01-15T05:26:23;9.00;1.00
6496;DHT22;3281;47.658;9.166;2023-01-15T05:28:53;9.00;1.00
6496;DHT22;3281;47.658;9.166;2023-01-15T05:31:20;9.00;1.00
6496;DHT22;3281;47.658;9.166;2023-01-15T05:33:48;8.90;1.00
6496;DHT22;3281;47.658;9.166;2023-01-15T05:36:18;8.90;1.00
6496;DHT22;3281;47.658;9.166;2023-01-15T05:38:45;9.00;1.00
6496;DHT22;3281;47.658;9.166;2023-01-15T05:41:16;9.00;1.00
6496;DHT22;3281;47.658;9.166;2023-01-15T05:44:02;9.00;1.00
6496;DHT22;3281;47.658;9.166;2023-01-15T05:46:29;9.00;1.00
6496;DHT22;3281;47.658;9.166;2023-01-15T05:48:58;9.10;1.00
6496;DHT22;3281;47.658;9.166;2023-01-15T05:51:25;9.00;1.00
6496;DHT22;3281;47.658;9.166;2023-01-15T05:53:52;9.10;1.00
6496;DHT22;3281;47.658;9.166;2023-01-15T05:56:20;9.20;1.00
6496;DHT22;3281;47.658;9.166;2023-01-15T05:58:47;9.20;1.00
6496;DHT22;3281;47.658;9.166;2023-01-15T06:01:13;9.20;1.00
6496;DHT22;3281;47.658;9.166;2023-01-15T06:03:40;9.20;1.00
6496;DHT22;3281;47.658;9.166;2023-01-15T06:06:11;9.10;1.00
6496;DHT22;3281;47.658;9.166;2023-01-15T06:08:38;9.10;1.00
6496;DHT22;3281;47.658;9.166;2023-01-15T06:11:05;9.20;1.00
6496;DHT22;3281;47.658;9.166;2023-01-15T06:13:34;9.10;1.00
6496;DHT22;3281;47.658;9.166;2023-01-15T06:16:01;9.20;1.00
6496;DHT22;3281;47.658;9.166;2023-01-15T06:18:27;9.20;1.00
6496;DHT22;3281;47.658;9.166;2023-01-15T06:20:54;9.30;1.00
6496;DHT22;3281;47.658;9.166;2023-01-15T06:23:21;9.30;1.00
6496;DHT22;3281;47.658;9.166;2023-01-15T06:25:47;9.30;1.00
6496;DHT22;3281;47.658;9.166;2023-01-15T06:28:14;9.20;1.00
6496;DHT22;3281;47.658;9.166;2023-01-15T06:30:42;9.30;1.00
6496;DHT22;3281;47.658;9.166;2023-01-15T06:33:09;9.30;1.00
6496;DHT22;3281;47.658;9.166;2023-01-15T06:35:35;9.40;1.00
6496;DHT22;3281;47.658;9.166;2023-01-15T06:38:02;9.40;1.00
6496;DHT22;3281;47.658;9.166;2023-01-15T06:40:29;9.40;1.00
6496;DHT22;3281;47.658;9.166;2023-01-15T06:42:57;9.40;1.00
6496;DHT22;3281;47.658;9.166;2023-01-15T06:45:43;9.40;1.00
6496;DHT22;3281;47.658;9.166;2023-01-15T06:48:27;9.40;1.00
6496;DHT22;3281;47.658;9.166;2023-01-15T06:50:54;9.50;1.00
6496;DHT22;3281;47.658;9.166;2023-01-15T06:53:21;9.40;1.00
6496;DHT22;3281;47.658;9.166;2023-01-15T06:55:48;9.30;1.00
6496;DHT22;3281;47.658;9.166;2023-01-15T06:58:15;9.20;1.00
6496;DHT22;3281;47.658;9.166;2023-01-15T07:00:43;9.10;1.00
6496;DHT22;3281;47.658;9.166;2023-01-15T07:03:11;9.10;1.00
6496;DHT22;3281;47.658;9.166;2023-01-15T07:05:39;9.10;1.00
6496;DHT22;3281;47.658;9.166;2023-01-15T07:08:06;9.10;1.00
6496;DHT22;3281;47.658;9.166;2023-01-15T07:10:33;9.10;1.00
6496;DHT22;3281;47.658;9.166;2023-01-15T07:13:00;9.20;1.00
6496;DHT22;3281;47.658;9.166;2023-01-15T07:15:27;9.20;1.00
6496;DHT22;3281;47.658;9.166;2023-01-15T07:17:57;9.20;1.00
6496;DHT22;3281;47.658;9.166;2023-01-15T07:20:23;9.10;1.00
6496;DHT22;3281;47.658;9.166;2023-01-15T07:22:51;9.20;1.00
6496;DHT22;3281;47.658;9.166;2023-01-15T07:25:18;9.30;1.00
6496;DHT22;3281;47.658;9.166;2023-01-15T07:27:45;9.20;1.00
6496;DHT22;3281;47.658;9.166;2023-01-15T07:30:13;9.30;1.00
6496;DHT22;3281;47.658;9.166;2023-01-15T07:32:39;9.40;1.00
6496;DHT22;3281;47.658;9.166;2023-01-15T07:35:08;9.40;1.00
6496;DHT22;3281;47.658;9.166;2023-01-15T07:37:35;9.50;1.00
6496;DHT22;3281;47.658;9.166;2023-01-15T07:40:02;9.50;1.00
6496;DHT22;3281;47.658;9.166;2023-01-15T07:42:29;9.30;1.00
6496;DHT22;3281;47.658;9.166;2023-01-15T07:45:13;9.40;1.00
6496;DHT22;3281;47.658;9.166;2023-01-15T07:47:57;9.30;1.00
6496;DHT22;3281;47.658;9.166;2023-01-15T07:50:43;9.40;1.00
6496;DHT22;3281;47.658;9.166;2023-01-15T07:53:09;9.50;1.00
6496;DHT22;3281;47.658;9.166;2023-01-15T07:55:36;9.50;1.00
6496;DHT22;3281;47.658;9.166;2023-01-15T07:58:03;9.50;1.00
6496;DHT22;3281;47.658;9.166;2023-01-15T08:00:29;9.50;1.00
6496;DHT22;3281;47.658;9.166;2023-01-15T08:02:56;9.40;1.00
6496;DHT22;3281;47.658;9.166;2023-01-15T08:05:23;9.40;1.00
6496;DHT22;3281;47.658;9.166;2023-01-15T08:07:51;9.40;1.00
6496;DHT22;3281;47.658;9.166;2023-01-15T08:10:17;9.40;1.00
6496;DHT22;3281;47.658;9.166;2023-01-15T08:12:47;9.40;1.00
6496;DHT22;3281;47.658;9.166;2023-01-15T08:15:37;9.50;1.00
6496;DHT22;3281;47.658;9.166;2023-01-15T08:18:03;9.40;1.00
6496;DHT22;3281;47.658;9.166;2023-01-15T08:20:33;9.40;1.00
6496;DHT22;3281;47.658;9.166;2023-01-15T08:23:01;9.30;1.00
6496;DHT22;3281;47.658;9.166;2023-01-15T08:25:28;9.30;1.00
6496;DHT22;3281;47.658;9.166;2023-01-15T08:27:58;9.20;1.00
6496;DHT22;3281;47.658;9.166;2023-01-15T08:30:25;9.10;1.00
6496;DHT22;3281;47.658;9.166;2023-01-15T08:32:57;9.20;1.00
6496;DHT22;3281;47.658;9.166;2023-01-15T08:35:24;9.20;1.00
6496;DHT22;3281;47.658;9.166;2023-01-15T08:37:51;9.50;1.00
6496;DHT22;3281;47.658;9.166;2023-01-15T08:40:19;9.30;1.00
6496;DHT22;3281;47.658;9.166;2023-01-15T08:42:46;9.70;1.00
6496;DHT22;3281;47.658;9.166;2023-01-15T08:45:13;10.00;1.00
6496;DHT22;3281;47.658;9.166;2023-01-15T08:47:39;10.20;1.00
6496;DHT22;3281;47.658;9.166;2023-01-15T08:50:07;10.40;1.00
6496;DHT22;3281;47.658;9.166;2023-01-15T08:52:34;10.60;1.00
6496;DHT22;3281;47.658;9.166;2023-01-15T08:55:02;10.60;1.00
6496;DHT22;3281;47.658;9.166;2023-01-15T08:57:30;10.70;1.00
6496;DHT22;3281;47.658;9.166;2023-01-15T08:59:57;10.70;1.00
6496;DHT22;3281;47.658;9.166;2023-01-15T09:02:24;10.70;1.00
6496;DHT22;3281;47.658;9.166;2023-01-15T09:04:52;10.60;1.00
6496;DHT22;3281;47.658;9.166;2023-01-15T09:07:18;10.60;1.00
6496;DHT22;3281;47.658;9.166;2023-01-15T09:09:45;10.50;1.00
6496;DHT22;3281;47.658;9.166;2023-01-15T09:12:12;10.50;1.00
6496;DHT22;3281;47.658;9.166;2023-01-15T09:14:40;10.40;1.00
6496;DHT22;3281;47.658;9.166;2023-01-15T09:17:07;10.40;1.00
6496;DHT22;3281;47.658;9.166;2023-01-15T09:19:34;10.30;1.00
6496;DHT22;3281;47.658;9.166;2023-01-15T09:22:00;10.10;1.00
6496;DHT22;3281;47.658;9.166;2023-01-15T09:24:27;9.90;1.00
6496;DHT22;3281;47.658;9.166;2023-01-15T09:26:54;9.90;1.00
6496;DHT22;3281;47.658;9.166;2023-01-15T09:29:21;9.80;1.00
6496;DHT22;3281;47.658;9.166;2023-01-15T09:31:49;9.80;1.00
6496;DHT22;3281;47.658;9.166;2023-01-15T09:34:15;9.70;1.00
6496;DHT22;3281;47.658;9.166;2023-01-15T09:36:42;9.60;1.00
6496;DHT22;3281;47.658;9.166;2023-01-15T09:39:11;9.60;1.00
6496;DHT22;3281;47.658;9.166;2023-01-15T09:41:52;9.40;1.00
6496;DHT22;3281;47.658;9.166;2023-01-15T09:44:38;9.40;1.00
6496;DHT22;3281;47.658;9.166;2023-01-15T09:47:13;9.30;1.00
6496;DHT22;3281;47.658;9.166;2023-01-15T09:49:50;9.20;1.00
6496;DHT22;3281;47.658;9.166;2023-01-15T09:52:25;9.10;1.00
6496;DHT22;3281;47.658;9.166;2023-01-15T09:55:00;9.10;1.00
6496;DHT22;3281;47.658;9.166;2023-01-15T09:57:29;9.10;1.00
6496;DHT22;3281;47.658;9.166;2023-01-15T09:59:56;8.80;1.00
6496;DHT22;3281;47.658;9.166;2023-01-15T10:02:29;8.80;1.00
6496;DHT22;3281;47.658;9.166;2023-01-15T10:05:03;8.60;1.00
6496;DHT22;3281;47.658;9.166;2023-01-15T10:07:39;8.50;1.00
6496;DHT22;3281;47.658;9.166;2023-01-15T10:10:10;8.50;1.00
6496;DHT22;3281;47.658;9.166;2023-01-15T10:12:38;8.50;1.00
6496;DHT22;3281;47.658;9.166;2023-01-15T10:15:23;8.50;1.00
6496;DHT22;3281;47.658;9.166;2023-01-15T10:17:52;8.50;1.00
6496;DHT22;3281;47.658;9.166;2023-01-15T10:23:32;8.30;1.00
6496;DHT22;3281;47.658;9.166;2023-01-15T10:26:02;8.30;1.00
6496;DHT22;3281;47.658;9.166;2023-01-15T10:28:44;8.20;1.00
6496;DHT22;3281;47.658;9.166;2023-01-15T10:31:19;8.20;1.00
6496;DHT22;3281;47.658;9.166;2023-01-15T10:33:58;8.10;1.00
6496;DHT22;3281;47.658;9.166;2023-01-15T10:36:30;8.00;1.00
6496;DHT22;3281;47.658;9.166;2023-01-15T10:39:02;8.00;1.00
6496;DHT22;3281;47.658;9.166;2023-01-15T10:41:41;7.90;1.00
6496;DHT22;3281;47.658;9.166;2023-01-15T10:44:15;7.80;1.00
6496;DHT22;3281;47.658;9.166;2023-01-15T10:46:48;7.80;1.00
6496;DHT22;3281;47.658;9.166;2023-01-15T10:49:19;7.80;1.00
6496;DHT22;3281;47.658;9.166;2023-01-15T10:51:48;7.70;1.00
6496;DHT22;3281;47.658;9.166;2023-01-15T10:54:21;7.70;1.00
6496;DHT22;3281;47.658;9.166;2023-01-15T10:56:54;7.50;1.00
6496;DHT22;3281;47.658;9.166;2023-01-15T10:59:33;7.30;1.00
6496;DHT22;3281;47.658;9.166;2023-01-15T11:02:02;7.20;1.00
6496;DHT22;3281;47.658;9.166;2023-01-15T11:04:31;7.00;1.00
6496;DHT22;3281;47.658;9.166;2023-01-15T11:06:58;6.80;1.00
6496;DHT22;3281;47.658;9.166;2023-01-15T11:09:26;6.60;1.00
6496;DHT22;3281;47.658;9.166;2023-01-15T11:12:04;6.70;1.00
6496;DHT22;3281;47.658;9.166;2023-01-15T11:14:49;6.60;1.00
6496;DHT22;3281;47.658;9.166;2023-01-15T11:17:36;6.50;1.00
6496;DHT22;3281;47.658;9.166;2023-01-15T11:20:28;6.40;1.00
6496;DHT22;3281;47.658;9.166;2023-01-15T11:22:55;6.40;1.00
6496;DHT22;3281;47.658;9.166;2023-01-15T11:25:30;6.30;1.00
6496;DHT22;3281;47.658;9.166;2023-01-15T11:27:59;6.30;1.00
6496;DHT22;3281;47.658;9.166;2023-01-15T11:30:28;6.30;1.00
6496;DHT22;3281;47.658;9.166;2023-01-15T11:32:58;6.10;1.00
6496;DHT22;3281;47.658;9.166;2023-01-15T11:35:26;6.10;1.00
6496;DHT22;3281;47.658;9.166;2023-01-15T11:38:03;6.20;1.00
6496;DHT22;3281;47.658;9.166;2023-01-15T11:40:30;6.10;1.00
6496;DHT22;3281;47.658;9.166;2023-01-15T11:42:57;6.00;1.00
6496;DHT22;3281;47.658;9.166;2023-01-15T11:45:49;5.90;1.00
6496;DHT22;3281;47.658;9.166;2023-01-15T11:48:41;5.80;1.00
6496;DHT22;3281;47.658;9.166;2023-01-15T11:51:27;5.70;1.00
6496;DHT22;3281;47.658;9.166;2023-01-15T11:53:58;5.50;1.00
6496;DHT22;3281;47.658;9.166;2023-01-15T11:56:29;5.60;1.00
6496;DHT22;3281;47.658;9.166;2023-01-15T11:58:57;5.50;1.00
6496;DHT22;3281;47.658;9.166;2023-01-15T12:01:29;5.40;1.00
6496;DHT22;3281;47.658;9.166;2023-01-15T12:03:58;5.40;1.00
6496;DHT22;3281;47.658;9.166;2023-01-15T12:06:27;5.40;1.00
6496;DHT22;3281;47.658;9.166;2023-01-15T12:08:59;5.20;1.00
6496;DHT22;3281;47.658;9.166;2023-01-15T12:14:34;5.10;1.00
6496;DHT22;3281;47.658;9.166;2023-01-15T12:17:15;5.10;1.00
6496;DHT22;3281;47.658;9.166;2023-01-15T12:19:50;5.10;1.00
6496;DHT22;3281;47.658;9.166;2023-01-15T12:22:31;5.10;1.00
6496;DHT22;3281;47.658;9.166;2023-01-15T12:25:22;4.90;1.00
6496;DHT22;3281;47.658;9.166;2023-01-15T12:27:56;5.00;1.00
6496;DHT22;3281;47.658;9.166;2023-01-15T12:30:28;4.90;1.00
6496;DHT22;3281;47.658;9.166;2023-01-15T12:33:05;4.90;1.00
6496;DHT22;3281;47.658;9.166;2023-01-15T12:35:37;4.90;1.00
6496;DHT22;3281;47.658;9.166;2023-01-15T12:38:14;5.00;1.00
6496;DHT22;3281;47.658;9.166;2023-01-15T12:40:46;4.90;1.00
6496;DHT22;3281;47.658;9.166;2023-01-15T12:43:18;4.90;1.00
6496;DHT22;3281;47.658;9.166;2023-01-15T12:46:05;4.90;1.00
6496;DHT22;3281;47.658;9.166;2023-01-15T12:48:40;4.90;1.00
6496;DHT22;3281;47.658;9.166;2023-01-15T12:51:13;4.90;1.00
6496;DHT22;3281;47.658;9.166;2023-01-15T12:53:44;4.90;1.00
6496;DHT22;3281;47.658;9.166;2023-01-15T12:56:18;4.80;1.00
6496;DHT22;3281;47.658;9.166;2023-01-15T12:58:49;4.80;1.00
6496;DHT22;3281;47.658;9.166;2023-01-15T13:01:21;4.70;1.00
6496;DHT22;3281;47.658;9.166;2023-01-15T13:03:57;4.60;1.00
6496;DHT22;3281;47.658;9.166;2023-01-15T13:06:25;4.70;1.00
6496;DHT22;3281;47.658;9.166;2023-01-15T13:08:59;4.70;1.00
6496;DHT22;3281;47.658;9.166;2023-01-15T13:11:28;4.60;1.00
6496;DHT22;3281;47.658;9.166;2023-01-15T13:13:54;4.70;1.00
6496;DHT22;3281;47.658;9.166;2023-01-15T13:16:32;4.70;1.00
6496;DHT22;3281;47.658;9.166;2023-01-15T13:19:16;4.60;1.00
6496;DHT22;3281;47.658;9.166;2023-01-15T13:21:46;4.60;1.00
6496;DHT22;3281;47.658;9.166;2023-01-15T13:24:46;4.60;1.00
6496;DHT22;3281;47.658;9.166;2023-01-15T13:27:22;4.60;1.00
6496;DHT22;3281;47.658;9.166;2023-01-15T13:30:00;4.50;1.00
6496;DHT22;3281;47.658;9.166;2023-01-15T13:32:33;4.50;1.00
6496;DHT22;3281;47.658;9.166;2023-01-15T13:35:05;4.50;1.00
6496;DHT22;3281;47.658;9.166;2023-01-15T13:37:39;4.60;1.00
6496;DHT22;3281;47.658;9.166;2023-01-15T13:40:21;4.60;1.00
6496;DHT22;3281;47.658;9.166;2023-01-15T13:42:51;4.60;1.00
6496;DHT22;3281;47.658;9.166;2023-01-15T13:45:31;4.70;1.00
6496;DHT22;3281;47.658;9.166;2023-01-15T13:48:04;4.70;1.00
6496;DHT22;3281;47.658;9.166;2023-01-15T13:50:34;4.60;1.00
6496;DHT22;3281;47.658;9.166;2023-01-15T13:53:04;4.70;1.00
6496;DHT22;3281;47.658;9.166;2023-01-15T13:55:36;4.80;1.00
6496;DHT22;3281;47.658;9.166;2023-01-15T13:58:16;4.80;1.00
6496;DHT22;3281;47.658;9.166;2023-01-15T14:00:45;4.80;1.00
6496;DHT22;3281;47.658;9.166;2023-01-15T14:03:26;4.90;1.00
6496;DHT22;3281;47.658;9.166;2023-01-15T14:05:54;4.80;1.00
6496;DHT22;3281;47.658;9.166;2023-01-15T14:08:25;4.90;1.00
6496;DHT22;3281;47.658;9.166;2023-01-15T14:10:53;4.90;1.00
6496;DHT22;3281;47.658;9.166;2023-01-15T14:13:44;5.00;1.00
6496;DHT22;3281;47.658;9.166;2023-01-15T14:16:25;4.90;1.00
6496;DHT22;3281;47.658;9.166;2023-01-15T14:19:11;5.00;1.00
6496;DHT22;3281;47.658;9.166;2023-01-15T14:21:50;5.00;1.00
6496;DHT22;3281;47.658;9.166;2023-01-15T14:24:51;5.10;1.00
6496;DHT22;3281;47.658;9.166;2023-01-15T14:27:39;5.00;1.00
6496;DHT22;3281;47.658;9.166;2023-01-15T14:30:20;5.00;1.00
6496;DHT22;3281;47.658;9.166;2023-01-15T14:32:58;5.10;1.00
6496;DHT22;3281;47.658;9.166;2023-01-15T14:35:26;5.10;1.00
6496;DHT22;3281;47.658;9.166;2023-01-15T14:37:56;5.10;1.00
6496;DHT22;3281;47.658;9.166;2023-01-15T14:40:28;5.20;1.00
6496;DHT22;3281;47.658;9.166;2023-01-15T14:43:00;5.20;1.00
6496;DHT22;3281;47.658;9.166;2023-01-15T14:45:28;5.20;1.00
6496;DHT22;3281;47.658;9.166;2023-01-15T14:47:57;5.20;1.00
6496;DHT22;3281;47.658;9.166;2023-01-15T14:50:31;5.30;1.00
6496;DHT22;3281;47.658;9.166;2023-01-15T14:53:02;5.20;1.00
6496;DHT22;3281;47.658;9.166;2023-01-15T14:55:31;5.30;1.00
6496;DHT22;3281;47.658;9.166;2023-01-15T14:58:03;5.30;1.00
6496;DHT22;3281;47.658;9.166;2023-01-15T15:00:35;5.30;1.00
6496;DHT22;3281;47.658;9.166;2023-01-15T15:03:11;5.30;1.00
6496;DHT22;3281;47.658;9.166;2023-01-15T15:05:40;5.30;1.00
6496;DHT22;3281;47.658;9.166;2023-01-15T15:08:10;5.40;1.00
6496;DHT22;3281;47.658;9.166;2023-01-15T15:10:40;5.30;1.00
6496;DHT22;3281;47.658;9.166;2023-01-15T15:13:13;5.40;1.00
6496;DHT22;3281;47.658;9.166;2023-01-15T15:15:46;5.40;1.00
6496;DHT22;3281;47.658;9.166;2023-01-15T15:18:21;5.40;1.00
6496;DHT22;3281;47.658;9.166;2023-01-15T15:20:54;5.50;1.00
6496;DHT22;3281;47.658;9.166;2023-01-15T15:23:32;5.30;1.00
6496;DHT22;3281;47.658;9.166;2023-01-15T15:26:04;5.30;1.00
6496;DHT22;3281;47.658;9.166;2023-01-15T15:28:32;5.40;1.00
6496;DHT22;3281;47.658;9.166;2023-01-15T15:30:59;5.40;1.00
6496;DHT22;3281;47.658;9.166;2023-01-15T15:33:30;5.40;1.00
6496;DHT22;3281;47.658;9.166;2023-01-15T15:36:01;5.50;1.00
6496;DHT22;3281;47.658;9.166;2023-01-15T15:38:28;5.50;1.00
6496;DHT22;3281;47.658;9.166;2023-01-15T15:40:56;5.50;1.00
6496;DHT22;3281;47.658;9.166;2023-01-15T15:43:27;5.30;1.00
6496;DHT22;3281;47.658;9.166;2023-01-15T15:46:25;5.30;1.00
6496;DHT22;3281;47.658;9.166;2023-01-15T15:49:09;5.30;1.00
6496;DHT22;3281;47.658;9.166;2023-01-15T15:51:38;5.30;1.00
6496;DHT22;3281;47.658;9.166;2023-01-15T15:54:14;5.30;1.00
6496;DHT22;3281;47.658;9.166;2023-01-15T15:56:46;5.30;1.00
6496;DHT22;3281;47.658;9.166;2023-01-15T15:59:24;5.10;1.00
6496;DHT22;3281;47.658;9.166;2023-01-15T16:01:54;5.10;1.00
6496;DHT22;3281;47.658;9.166;2023-01-15T16:04:22;5.00;1.00
6496;DHT22;3281;47.658;9.166;2023-01-15T16:06:49;5.10;1.00
6496;DHT22;3281;47.658;9.166;2023-01-15T16:09:20;5.10;1.00
6496;DHT22;3281;47.658;9.166;2023-01-15T16:11:48;5.00;1.00
6496;DHT22;3281;47.658;9.166;2023-01-15T16:14:17;5.00;1.00
6496;DHT22;3281;47.658;9.166;2023-01-15T16:16:46;5.00;1.00
6496;DHT22;3281;47.658;9.166;2023-01-15T16:19:17;5.00;1.00
6496;DHT22;3281;47.658;9.166;2023-01-15T16:21:45;5.00;1.00
6496;DHT22;3281;47.658;9.166;2023-01-15T16:24:22;5.00;1.00
6496;DHT22;3281;47.658;9.166;2023-01-15T16:26:57;4.80;1.00
6496;DHT22;3281;47.658;9.166;2023-01-15T16:29:28;4.70;1.00
6496;DHT22;3281;47.658;9.166;2023-01-15T16:31:55;4.80;1.00
6496;DHT22;3281;47.658;9.166;2023-01-15T16:34:27;4.80;1.00
6496;DHT22;3281;47.658;9.166;2023-01-15T16:36:56;4.80;1.00
6496;DHT22;3281;47.658;9.166;2023-01-15T16:39:24;4.90;1.00
6496;DHT22;3281;47.658;9.166;2023-01-15T16:41:54;4.90;1.00
6496;DHT22;3281;47.658;9.166;2023-01-15T16:44:25;4.90;1.00
6496;DHT22;3281;47.658;9.166;2023-01-15T16:46:55;4.90;1.00
6496;DHT22;3281;47.658;9.166;2023-01-15T16:49:27;4.80;1.00
6496;DHT22;3281;47.658;9.166;2023-01-15T16:51:55;4.80;1.00
6496;DHT22;3281;47.658;9.166;2023-01-15T16:54:44;5.00;1.00
6496;DHT22;3281;47.658;9.166;2023-01-15T16:57:29;4.90;1.00
6496;DHT22;3281;47.658;9.166;2023-01-15T17:00:00;4.90;1.00
6496;DHT22;3281;47.658;9.166;2023-01-15T17:05:24;4.80;1.00
6496;DHT22;3281;47.658;9.166;2023-01-15T17:07:51;4.60;1.00
6496;DHT22;3281;47.658;9.166;2023-01-15T17:10:25;4.60;1.00
6496;DHT22;3281;47.658;9.166;2023-01-15T17:12:52;4.70;1.00
6496;DHT22;3281;47.658;9.166;2023-01-15T17:15:38;4.70;1.00